Ana Sayfa
METAR-TAF:

METAR-TAF

Havaalanları :

Cabo San Lucas, Meksika

Enlem: 22-56-51N, Boylam: 109-56-13W, yükseklik: 210 m

Güncel hava durumu gözlemi

Rapor saat 13:12 UTC de 27 dakika önce yapıldı.
Rüzgar kuzey/kuzeybatıdan 6 kt
Sıcaklık 26°C
Nem 30%
Basınç 1011 hPa
Görüş mesafesi: 14.5 km
Açık gökyüzü

METAR: MMSL 221312Z RTD 33006KT 9SM SKC 26/07 A2986 RMK RTS

Saat: 06:39 (13:39 UTC)

Tahmin

Rapor saat 05:10 UTC de 8 saat ve 29 dakika önce yapıldı.
Ayın 22'si saat 06 UTC'den ayın 23'si saat 06 UTC'ye kadar geçerli Tahmin
Rüzgar batı/kuzeybatıdan 5 kt
Görüş mesafesi: 10 km
25000 ft yükseklikte parçalı bulutlu
Ayın 22'si saat 1700 UTC'den
Rüzgar güney/güneydoğudan 10 kt
Görüş mesafesi: 10 km
25000 ft yükseklikte parçalı bulutlu
Ayın 23'si saat 0200 UTC'den
Rüzgar batı/kuzeybatıdan 5 kt
Görüş mesafesi: 10 km
25000 ft yükseklikte parçalı bulutlu

TAF: MMSL 220510Z 2206/2306 30005KT P6SM SCT250 FM221700 16010KT P6SM SCT250 FM230200 30005KT P6SM SCT250

4.000'den fazla havaalanı için hava durumu gözlemleri ve tahminleri (METAR ve TAF raporları).

Kullanılabilir istasyonlar harita üzerinde sarı ve kırmızı noktalarla gösterilir.

İstasyonun adını görmek için fareyi noktanın üzerinde gezdirin.

Sonrasında hava gözlem ve tahminlerini görmek için tıklayın.

Haritayı değiştirmek için: yaklaştırmak için siyah artı işaretli yeşil düğmeye ve uzaklaştırmak için de eksi işaretli düğmeye hızla tıklayın; bitişik haritalar için yeşil okları kullanın.


METAR-TAF: